01:54
Airports
Links
Donate
Help keep this website running!
PayPal
Bitcoin
METAR
LICR 232250Z 05006KT CAVOK 11/06 Q1022
Current Weather Conditions at LICR
VFR 22:50:00 23-11-17
Altimeter:30.18 hg
Temp:11.0°c 52°f
Dew point:6.0°c 43°f
Wind:6 knots, 6.9 mph, 3 m/s, from 50°
Visibility:6.21 statute miles
(CAVOK)
Past METAR reports
VFR 21:50:00 23-11-17
Altimeter:30.18 hg
Temp:11.0°c 52°f
Dew point:6.0°c 43°f
Wind:4 knots, 4.6 mph, 2 m/s, from 50°
Visibility:6.21 statute miles
(CAVOK)
LICR 232150Z 05004KT CAVOK 11/06 Q1022
VFR 20:50:00 23-11-17
Altimeter:30.18 hg
Temp:12.0°c 54°f
Dew point:7.0°c 45°f
Wind:5 knots, 5.8 mph, 3 m/s, from 50°
Visibility:6.21 statute miles
(CAVOK)
LICR 232050Z 05005KT CAVOK 12/07 Q1022
TAF
TAF LICR 231700Z 2318/2418 02008KT CAVOK
Forecast at LICR
18:00 23-11-17 to 18:00 24-11-17
NSW
Wind:8 Knots from 20°
Visibility:6.21 statute miles
NSC